PWSweather.com
Personal Weather Stations
Station Observations
IMAZOWIE6
WarszawaPL

WarszawaPL

Lat: 52.27957, Lon: 21.05489

Elevation: 100

Station Type: WS1080

http://stacjapogody.waw.pl/

High Low Average
Temperature 43.9°F6.6°C 37.6°F3.1°C 41.0°F5.0°C
Dew Point 0.4°F-17.6°C -169.0°F-111.7°C -87.9°F-66.6°C
Winds 0.6 mph 1.0 kmh Calm Calm Calm NCalm N
Wind Gusts 4.0 mph6.4 kmh -- --
Humidity 17% 10% 14%
Pressure 29.32 in992.9 mb 28.99 in981.7 mb -
Precipitation 0.00 in0.0 mm - -
Hour Temp Dew Point Humidity Winds Wind Gusts Pressure Precip Precip Rate Daily Precip Total
12:05 AM 43.7°F6.5°C -2.5°F-19.2°C 14% Calm Calm -- 29.00 in982.1 mb 0.00 in0.0 mm 0.00 in0.0 mm 0.00 in0.0 mm
12:20 AM 43.7°F6.5°C -2.5°F-19.2°C 14% Calm Calm -- 29.00 in982.1 mb 0.00 in0.0 mm 0.00 in0.0 mm 0.00 in0.0 mm
12:35 AM 43.9°F6.6°C -2.4°F-19.1°C 14% Calm Calm -- 29.00 in982.1 mb 0.00 in0.0 mm 0.00 in0.0 mm 0.00 in0.0 mm
12:50 AM 43.9°F6.6°C -2.4°F-19.1°C 14% Calm Calm 0.6 mph1.0 kmh 29.00 in982.1 mb 0.00 in0.0 mm 0.00 in0.0 mm 0.00 in0.0 mm
01:05 AM 43.9°F6.6°C -2.4°F-19.1°C 14% Calm Calm -- 29.00 in982.1 mb 0.00 in0.0 mm 0.00 in0.0 mm 0.00 in0.0 mm
01:20 AM 43.7°F6.5°C -2.5°F-19.2°C 14% Calm Calm -- 29.00 in982.1 mb 0.00 in0.0 mm 0.00 in0.0 mm 0.00 in0.0 mm
01:35 AM 43.7°F6.5°C -2.5°F-19.2°C 14% Calm Calm -- 29.00 in982.1 mb 0.00 in0.0 mm 0.00 in0.0 mm 0.00 in0.0 mm
01:50 AM 43.5°F6.4°C -2.7°F-19.3°C 14% Calm Calm -- 29.00 in982.1 mb 0.00 in0.0 mm 0.00 in0.0 mm 0.00 in0.0 mm
02:05 AM 43.7°F6.5°C -2.5°F-19.2°C 14% Calm Calm -- 29.00 in982.1 mb 0.00 in0.0 mm 0.00 in0.0 mm 0.00 in0.0 mm
02:20 AM 43.7°F6.5°C -2.5°F-19.2°C 14% Calm Calm -- 29.00 in982.1 mb 0.00 in0.0 mm 0.00 in0.0 mm 0.00 in0.0 mm
02:35 AM 43.5°F6.4°C -2.7°F-19.3°C 14% Calm Calm -- 29.00 in982.1 mb 0.00 in0.0 mm 0.00 in0.0 mm 0.00 in0.0 mm
02:50 AM 43.5°F6.4°C -2.7°F-19.3°C 14% Calm Calm -- 29.00 in982.1 mb 0.00 in0.0 mm 0.00 in0.0 mm 0.00 in0.0 mm
03:05 AM 43.3°F6.3°C -2.8°F-19.3°C 14% Calm Calm -- 29.00 in982.1 mb 0.00 in0.0 mm 0.00 in0.0 mm 0.00 in0.0 mm
03:20 AM 43.0°F6.1°C -4.6°F-20.3°C 13% Calm Calm -- 29.00 in982.1 mb 0.01 in0.3 mm 0.05 in1.3 mm 0.01 in0.3 mm
03:35 AM 42.6°F5.9°C -3.4°F-19.7°C 14% Calm Calm -- 28.99 in981.7 mb 0.01 in0.3 mm 0.00 in0.0 mm 0.01 in0.3 mm
03:50 AM 42.6°F5.9°C -3.4°F-19.7°C 14% Calm Calm -- 28.99 in981.7 mb 0.02 in0.5 mm 0.05 in1.3 mm 0.02 in0.5 mm
04:05 AM 42.4°F5.8°C -3.5°F-19.7°C 14% Calm Calm -- 28.99 in981.7 mb 0.02 in0.5 mm 0.00 in0.0 mm 0.02 in0.5 mm
04:20 AM 42.4°F5.8°C -3.5°F-19.7°C 14% Calm Calm -- 29.00 in982.1 mb 0.01 in0.3 mm 0.00 in0.0 mm 0.02 in0.5 mm
04:35 AM 42.4°F5.8°C -3.5°F-19.7°C 14% Calm Calm -- 29.00 in982.1 mb 0.02 in0.5 mm 0.05 in1.3 mm 0.04 in1.0 mm
04:50 AM 42.4°F5.8°C -2.1°F-18.9°C 15% Calm Calm -- 29.00 in982.1 mb 0.02 in0.5 mm 0.00 in0.0 mm 0.04 in1.0 mm
05:05 AM 42.4°F5.8°C -2.1°F-18.9°C 15% Calm Calm -- 29.00 in982.1 mb 0.02 in0.5 mm 0.00 in0.0 mm 0.04 in1.0 mm
05:20 AM 42.4°F5.8°C -0.8°F-18.2°C 16% Calm Calm -- 29.01 in982.4 mb 0.00 in0.0 mm 0.00 in0.0 mm 0.04 in1.0 mm
05:35 AM 42.3°F5.7°C -0.9°F-18.3°C 16% Calm Calm 0.6 mph1.0 kmh 29.01 in982.4 mb 0.01 in0.3 mm 0.05 in1.3 mm 0.05 in1.3 mm
05:50 AM 42.3°F5.7°C -0.9°F-18.3°C 16% Calm Calm -- 29.02 in982.7 mb 0.01 in0.3 mm 0.00 in0.0 mm 0.05 in1.3 mm
06:05 AM 42.4°F5.8°C -0.8°F-18.2°C 16% Calm Calm -- 29.02 in982.7 mb 0.01 in0.3 mm 0.00 in0.0 mm 0.05 in1.3 mm
06:20 AM 42.1°F5.6°C 0.2°F-17.7°C 17% Calm Calm -- 29.02 in982.7 mb 0.00 in0.0 mm 0.00 in0.0 mm 0.05 in1.3 mm
06:35 AM 42.3°F5.7°C 0.4°F-17.6°C 17% Calm Calm -- 29.03 in983.1 mb 0.00 in0.0 mm 0.00 in0.0 mm 0.05 in1.3 mm
06:50 AM 42.1°F5.6°C 0.2°F-17.7°C 17% Calm Calm -- 29.03 in983.1 mb 0.00 in0.0 mm 0.00 in0.0 mm 0.05 in1.3 mm
07:05 AM 42.1°F5.6°C 0.2°F-17.7°C 17% Calm Calm -- 29.04 in983.4 mb 0.00 in0.0 mm 0.00 in0.0 mm 0.05 in1.3 mm
07:20 AM 42.1°F5.6°C 0.2°F-17.7°C 17% Calm Calm 0.6 mph1.0 kmh 29.05 in983.7 mb 0.01 in0.3 mm 0.05 in1.3 mm 0.06 in1.5 mm
07:35 AM 41.7°F5.4°C -0.1°F-17.8°C 17% Calm Calm -- 29.06 in984.1 mb 0.01 in0.3 mm 0.00 in0.0 mm 0.06 in1.5 mm
07:50 AM 40.8°F4.9°C -0.8°F-18.2°C 17% Calm Calm -- 29.07 in984.4 mb 0.02 in0.5 mm 0.05 in1.3 mm 0.07 in1.8 mm
08:05 AM 40.3°F4.6°C -2.5°F-19.2°C 16% Calm Calm 0.6 mph1.0 kmh 29.08 in984.8 mb 0.02 in0.5 mm 0.00 in0.0 mm 0.07 in1.8 mm
08:20 AM 39.9°F4.4°C -2.8°F-19.3°C 16% Calm Calm 0.6 mph1.0 kmh 29.09 in985.1 mb 0.00 in0.0 mm 0.00 in0.0 mm 0.07 in1.8 mm
08:35 AM 39.9°F4.4°C -4.1°F-20.1°C 15% Calm Calm -- 29.10 in985.4 mb 0.00 in0.0 mm 0.00 in0.0 mm 0.07 in1.8 mm
08:50 AM 39.2°F4.0°C -6.1°F-21.2°C 14% Calm Calm 0.6 mph1.0 kmh 29.12 in986.1 mb 0.01 in0.3 mm 0.05 in1.3 mm 0.09 in2.3 mm
09:05 AM 39.0°F3.9°C -9.4°F-23.0°C 12% Calm Calm -- 29.12 in986.1 mb 0.01 in0.3 mm 0.00 in0.0 mm 0.09 in2.3 mm
09:20 AM 39.2°F4.0°C -9.2°F-22.9°C 12% Calm Calm -- 29.13 in986.5 mb 0.00 in0.0 mm 0.00 in0.0 mm 0.09 in2.3 mm
09:35 AM 39.4°F4.1°C -9.1°F-22.8°C 12% Calm Calm -- 29.13 in986.5 mb 0.00 in0.0 mm 0.00 in0.0 mm 0.09 in2.3 mm
09:50 AM 39.7°F4.3°C -8.8°F-22.7°C 12% Calm Calm -- 29.15 in987.1 mb 0.00 in0.0 mm 0.00 in0.0 mm 0.09 in2.3 mm
10:05 AM 39.7°F4.3°C -8.8°F-22.7°C 12% Calm Calm -- 29.15 in987.1 mb 0.00 in0.0 mm 0.00 in0.0 mm 0.09 in2.3 mm
10:20 AM 40.3°F4.6°C -8.4°F-22.4°C 12% Calm Calm -- 29.15 in987.1 mb 0.00 in0.0 mm 0.00 in0.0 mm 0.09 in2.3 mm
10:35 AM 40.8°F4.9°C -6.3°F-21.3°C 13% Calm Calm -- 29.16 in987.5 mb 0.00 in0.0 mm 0.00 in0.0 mm 0.09 in2.3 mm
10:50 AM 41.2°F5.1°C -6.1°F-21.2°C 13% Calm Calm -- 29.16 in987.5 mb 0.00 in0.0 mm 0.00 in0.0 mm 0.09 in2.3 mm
11:05 AM 41.5°F5.3°C -7.4°F-21.9°C 12% Calm Calm -- 29.16 in987.5 mb 0.00 in0.0 mm 0.00 in0.0 mm 0.09 in2.3 mm
11:20 AM 41.4°F5.2°C -9.3°F-22.9°C 11% Calm Calm 0.6 mph1.0 kmh 29.16 in987.5 mb 0.00 in0.0 mm 0.00 in0.0 mm 0.09 in2.3 mm
11:35 AM 41.7°F5.4°C -10.9°F-23.8°C 10% Calm Calm 1.4 mph2.3 kmh 29.17 in987.8 mb 0.00 in0.0 mm 0.00 in0.0 mm 0.09 in2.3 mm
11:50 AM 41.7°F5.4°C -168.6°F-111.4°C - Calm Calm -- 29.17 in987.8 mb 0.00 in0.0 mm 0.00 in0.0 mm 0.09 in2.3 mm
12:05 PM 41.9°F5.5°C -168.6°F-111.4°C - Calm Calm -- 29.18 in988.1 mb 0.00 in0.0 mm 0.00 in0.0 mm 0.09 in2.3 mm
12:20 PM 41.5°F5.3°C -168.6°F-111.4°C - Calm Calm -- 29.19 in988.5 mb 0.00 in0.0 mm 0.00 in0.0 mm 0.09 in2.3 mm
12:35 PM 41.5°F5.3°C -168.6°F-111.4°C - Calm Calm 0.6 mph1.0 kmh 29.19 in988.5 mb 0.00 in0.0 mm 0.00 in0.0 mm 0.09 in2.3 mm
12:50 PM 41.7°F5.4°C -168.6°F-111.4°C - 0.6 mph N1.0 kmh N 4.0 mph6.4 kmh 29.19 in988.5 mb 0.00 in0.0 mm 0.00 in0.0 mm 0.09 in2.3 mm
01:05 PM 41.7°F5.4°C -168.6°F-111.4°C - Calm Calm 0.6 mph1.0 kmh 29.20 in988.8 mb 0.00 in0.0 mm 0.00 in0.0 mm 0.09 in2.3 mm
01:20 PM 41.7°F5.4°C -168.6°F-111.4°C - Calm Calm -- 29.20 in988.8 mb 0.00 in0.0 mm 0.00 in0.0 mm 0.09 in2.3 mm
01:35 PM 41.7°F5.4°C -168.6°F-111.4°C - Calm Calm -- 29.20 in988.8 mb 0.00 in0.0 mm 0.00 in0.0 mm 0.09 in2.3 mm
01:50 PM 41.7°F5.4°C -168.6°F-111.4°C - Calm Calm 1.4 mph2.3 kmh 29.21 in989.2 mb 0.00 in0.0 mm 0.00 in0.0 mm 0.09 in2.3 mm
02:05 PM 41.9°F5.5°C -168.6°F-111.4°C - Calm Calm -- 29.21 in989.2 mb 0.00 in0.0 mm 0.00 in0.0 mm 0.09 in2.3 mm
02:20 PM 41.7°F5.4°C -168.6°F-111.4°C - Calm Calm -- 29.21 in989.2 mb 0.00 in0.0 mm 0.00 in0.0 mm 0.09 in2.3 mm
02:35 PM 41.5°F5.3°C -168.6°F-111.4°C - Calm Calm -- 29.22 in989.5 mb 0.00 in0.0 mm 0.00 in0.0 mm 0.09 in2.3 mm
02:50 PM 41.4°F5.2°C -168.7°F-111.5°C - Calm Calm -- 29.23 in989.8 mb 0.00 in0.0 mm 0.00 in0.0 mm 0.09 in2.3 mm
03:05 PM 41.4°F5.2°C -168.7°F-111.5°C - Calm Calm -- 29.24 in990.2 mb 0.00 in0.0 mm 0.00 in0.0 mm 0.09 in2.3 mm
03:20 PM 41.2°F5.1°C -168.7°F-111.5°C - Calm Calm -- 29.24 in990.2 mb 0.00 in0.0 mm 0.00 in0.0 mm 0.09 in2.3 mm
03:35 PM 41.0°F5.0°C -168.7°F-111.5°C - Calm Calm -- 29.24 in990.2 mb 0.00 in0.0 mm 0.00 in0.0 mm 0.09 in2.3 mm
03:50 PM 40.8°F4.9°C -168.7°F-111.5°C - Calm Calm -- 29.25 in990.5 mb 0.00 in0.0 mm 0.00 in0.0 mm 0.09 in2.3 mm
04:05 PM 40.8°F4.9°C -168.7°F-111.5°C - Calm Calm -- 29.25 in990.5 mb 0.00 in0.0 mm 0.00 in0.0 mm 0.09 in2.3 mm
04:20 PM 40.6°F4.8°C -168.7°F-111.5°C - Calm Calm -- 29.25 in990.5 mb 0.00 in0.0 mm 0.00 in0.0 mm 0.09 in2.3 mm
04:35 PM 40.3°F4.6°C -168.8°F-111.6°C - Calm Calm 0.6 mph1.0 kmh 29.26 in990.9 mb 0.00 in0.0 mm 0.00 in0.0 mm 0.09 in2.3 mm
04:50 PM 40.5°F4.7°C -168.8°F-111.6°C - Calm Calm -- 29.26 in990.9 mb 0.00 in0.0 mm 0.00 in0.0 mm 0.09 in2.3 mm
05:05 PM 40.5°F4.7°C -168.8°F-111.6°C - Calm Calm -- 29.27 in991.2 mb 0.00 in0.0 mm 0.00 in0.0 mm 0.09 in2.3 mm
05:20 PM 40.1°F4.5°C -168.8°F-111.6°C - Calm Calm -- 29.27 in991.2 mb 0.00 in0.0 mm 0.00 in0.0 mm 0.09 in2.3 mm
05:35 PM 40.1°F4.5°C -168.8°F-111.6°C - Calm Calm -- 29.27 in991.2 mb 0.00 in0.0 mm 0.00 in0.0 mm 0.09 in2.3 mm
05:50 PM 39.7°F4.3°C -168.8°F-111.6°C - Calm Calm -- 29.27 in991.2 mb 0.00 in0.0 mm 0.00 in0.0 mm 0.09 in2.3 mm
06:05 PM 39.7°F4.3°C -168.8°F-111.6°C - Calm Calm -- 29.28 in991.5 mb 0.00 in0.0 mm 0.00 in0.0 mm 0.09 in2.3 mm
06:20 PM 39.6°F4.2°C -168.8°F-111.6°C - Calm Calm -- 29.28 in991.5 mb 0.00 in0.0 mm 0.00 in0.0 mm 0.09 in2.3 mm
06:35 PM 39.4°F4.1°C -168.9°F-111.6°C - Calm Calm -- 29.28 in991.5 mb 0.00 in0.0 mm 0.00 in0.0 mm 0.09 in2.3 mm
06:46 PM 39.4°F4.1°C -168.9°F-111.6°C - Calm Calm -- 29.28 in991.5 mb 0.00 in0.0 mm 0.00 in0.0 mm 0.09 in2.3 mm
07:02 PM 39.2°F4.0°C -168.9°F-111.6°C - Calm Calm -- 29.28 in991.5 mb 0.00 in0.0 mm 0.00 in0.0 mm 0.09 in2.3 mm
07:18 PM 39.2°F4.0°C -168.9°F-111.6°C - Calm Calm -- 29.28 in991.5 mb 0.00 in0.0 mm 0.00 in0.0 mm 0.09 in2.3 mm
07:34 PM 39.2°F4.0°C -168.9°F-111.6°C - Calm Calm -- 29.28 in991.5 mb 0.00 in0.0 mm 0.00 in0.0 mm 0.09 in2.3 mm
07:50 PM 39.6°F4.2°C -168.8°F-111.6°C - Calm Calm -- 29.28 in991.5 mb 0.00 in0.0 mm 0.00 in0.0 mm 0.09 in2.3 mm
08:01 PM 39.4°F4.1°C -168.9°F-111.6°C - Calm Calm -- 29.29 in991.9 mb 0.00 in0.0 mm 0.00 in0.0 mm 0.09 in2.3 mm
08:17 PM 39.4°F4.1°C -168.9°F-111.6°C - Calm Calm -- 29.29 in991.9 mb 0.00 in0.0 mm 0.00 in0.0 mm 0.09 in2.3 mm
08:33 PM 39.4°F4.1°C -168.9°F-111.6°C - Calm Calm -- 29.29 in991.9 mb 0.00 in0.0 mm 0.00 in0.0 mm 0.09 in2.3 mm
08:49 PM 39.0°F3.9°C -168.9°F-111.6°C - Calm Calm 1.4 mph2.3 kmh 29.29 in991.9 mb 0.00 in0.0 mm 0.00 in0.0 mm 0.09 in2.3 mm
09:05 PM 39.2°F4.0°C -168.9°F-111.6°C - Calm Calm -- 29.29 in991.9 mb 0.00 in0.0 mm 0.00 in0.0 mm 0.09 in2.3 mm
09:21 PM 39.2°F4.0°C -168.9°F-111.6°C - Calm Calm -- 29.29 in991.9 mb 0.00 in0.0 mm 0.00 in0.0 mm 0.09 in2.3 mm
09:31 PM 39.0°F3.9°C -168.9°F-111.6°C - Calm Calm -- 29.29 in991.9 mb 0.00 in0.0 mm 0.00 in0.0 mm 0.09 in2.3 mm
09:47 PM 38.5°F3.6°C -169.0°F-111.7°C - Calm Calm -- 29.30 in992.2 mb 0.00 in0.0 mm 0.00 in0.0 mm 0.09 in2.3 mm
10:03 PM 37.9°F3.3°C -169.0°F-111.7°C - Calm Calm -- 29.30 in992.2 mb 0.00 in0.0 mm 0.00 in0.0 mm 0.09 in2.3 mm
10:19 PM 37.6°F3.1°C -169.0°F-111.7°C - Calm Calm -- 29.31 in992.6 mb 0.00 in0.0 mm 0.00 in0.0 mm 0.09 in2.3 mm
10:35 PM 38.1°F3.4°C -169.0°F-111.7°C - Calm Calm -- 29.30 in992.2 mb 0.00 in0.0 mm 0.00 in0.0 mm 0.09 in2.3 mm
10:46 PM 38.3°F3.5°C -169.0°F-111.7°C - Calm Calm -- 29.30 in992.2 mb 0.00 in0.0 mm 0.00 in0.0 mm 0.09 in2.3 mm
11:02 PM 38.5°F3.6°C -169.0°F-111.7°C - Calm Calm -- 29.31 in992.6 mb 0.00 in0.0 mm 0.00 in0.0 mm 0.09 in2.3 mm
11:18 PM 38.5°F3.6°C -169.0°F-111.7°C - Calm Calm -- 29.31 in992.6 mb 0.00 in0.0 mm 0.00 in0.0 mm 0.09 in2.3 mm
11:34 PM 38.5°F3.6°C -169.0°F-111.7°C - Calm Calm -- 29.31 in992.6 mb 0.00 in0.0 mm 0.00 in0.0 mm 0.09 in2.3 mm
11:50 PM 38.5°F3.6°C -169.0°F-111.7°C - Calm Calm -- 29.32 in992.9 mb 0.00 in0.0 mm 0.00 in0.0 mm 0.09 in2.3 mm